sensor_id;sensor_type;location;lat;lon;timestamp;P1;durP1;ratioP1;P2;durP2;ratioP2
28545;SDS011;15749;49.606;8.738;2022-07-30T00:01:11;2.43;;;2.23;;
28545;SDS011;15749;49.606;8.738;2022-07-30T00:04:00;2.53;;;2.30;;
28545;SDS011;15749;49.606;8.738;2022-07-30T00:06:53;2.87;;;2.10;;
28545;SDS011;15749;49.606;8.738;2022-07-30T00:09:56;3.07;;;2.00;;
28545;SDS011;15749;49.606;8.738;2022-07-30T00:13:01;1.80;;;1.70;;
28545;SDS011;15749;49.606;8.738;2022-07-30T00:15:51;2.30;;;2.10;;
28545;SDS011;15749;49.606;8.738;2022-07-30T00:18:40;2.10;;;1.83;;
28545;SDS011;15749;49.606;8.738;2022-07-30T00:21:29;3.67;;;2.27;;
28545;SDS011;15749;49.606;8.738;2022-07-30T00:24:26;3.47;;;1.97;;
28545;SDS011;15749;49.606;8.738;2022-07-30T00:27:14;2.10;;;1.90;;
28545;SDS011;15749;49.606;8.738;2022-07-30T00:30:02;2.20;;;2.00;;
28545;SDS011;15749;49.606;8.738;2022-07-30T00:32:51;2.43;;;2.10;;
28545;SDS011;15749;49.606;8.738;2022-07-30T00:35:42;3.17;;;2.33;;
28545;SDS011;15749;49.606;8.738;2022-07-30T00:38:31;2.30;;;2.10;;
28545;SDS011;15749;49.606;8.738;2022-07-30T00:41:20;2.43;;;1.90;;
28545;SDS011;15749;49.606;8.738;2022-07-30T00:44:08;3.20;;;2.10;;
28545;SDS011;15749;49.606;8.738;2022-07-30T00:46:59;4.87;;;2.20;;
28545;SDS011;15749;49.606;8.738;2022-07-30T00:49:47;5.03;;;2.20;;
28545;SDS011;15749;49.606;8.738;2022-07-30T00:52:35;2.37;;;2.17;;
28545;SDS011;15749;49.606;8.738;2022-07-30T00:55:24;3.40;;;2.30;;
28545;SDS011;15749;49.606;8.738;2022-07-30T00:58:13;2.50;;;2.30;;
28545;SDS011;15749;49.606;8.738;2022-07-30T01:01:06;3.50;;;2.47;;
28545;SDS011;15749;49.606;8.738;2022-07-30T01:03:54;2.30;;;2.10;;
28545;SDS011;15749;49.606;8.738;2022-07-30T01:06:46;2.87;;;2.30;;
28545;SDS011;15749;49.606;8.738;2022-07-30T01:09:34;2.90;;;2.30;;
28545;SDS011;15749;49.606;8.738;2022-07-30T01:12:24;3.10;;;2.20;;
28545;SDS011;15749;49.606;8.738;2022-07-30T01:15:14;2.47;;;2.27;;
28545;SDS011;15749;49.606;8.738;2022-07-30T01:18:03;2.63;;;2.43;;
28545;SDS011;15749;49.606;8.738;2022-07-30T01:20:55;2.40;;;2.20;;
28545;SDS011;15749;49.606;8.738;2022-07-30T01:23:49;2.83;;;2.47;;
28545;SDS011;15749;49.606;8.738;2022-07-30T01:26:50;3.87;;;2.50;;
28545;SDS011;15749;49.606;8.738;2022-07-30T01:29:39;3.07;;;2.70;;
28545;SDS011;15749;49.606;8.738;2022-07-30T01:32:31;3.07;;;2.70;;
28545;SDS011;15749;49.606;8.738;2022-07-30T01:35:24;4.17;;;2.77;;
28545;SDS011;15749;49.606;8.738;2022-07-30T01:38:16;2.83;;;2.53;;
28545;SDS011;15749;49.606;8.738;2022-07-30T01:41:08;2.80;;;2.50;;
28545;SDS011;15749;49.606;8.738;2022-07-30T01:44:00;3.67;;;2.60;;
28545;SDS011;15749;49.606;8.738;2022-07-30T01:46:50;2.60;;;2.20;;
28545;SDS011;15749;49.606;8.738;2022-07-30T01:49:40;2.70;;;2.50;;
28545;SDS011;15749;49.606;8.738;2022-07-30T01:52:30;3.60;;;3.07;;
28545;SDS011;15749;49.606;8.738;2022-07-30T01:55:20;4.20;;;3.10;;
28545;SDS011;15749;49.606;8.738;2022-07-30T01:58:15;3.40;;;3.10;;
28545;SDS011;15749;49.606;8.738;2022-07-30T02:01:11;3.83;;;3.47;;
28545;SDS011;15749;49.606;8.738;2022-07-30T02:03:59;4.27;;;3.87;;
28545;SDS011;15749;49.606;8.738;2022-07-30T02:06:55;3.90;;;3.60;;
28545;SDS011;15749;49.606;8.738;2022-07-30T02:09:51;3.77;;;3.47;;
28545;SDS011;15749;49.606;8.738;2022-07-30T02:12:45;3.80;;;3.50;;
28545;SDS011;15749;49.606;8.738;2022-07-30T02:15:40;3.27;;;3.07;;
28545;SDS011;15749;49.606;8.738;2022-07-30T02:18:38;2.97;;;2.77;;
28545;SDS011;15749;49.606;8.738;2022-07-30T02:21:36;3.33;;;3.10;;
28545;SDS011;15749;49.606;8.738;2022-07-30T02:24:36;3.17;;;2.97;;
28545;SDS011;15749;49.606;8.738;2022-07-30T02:27:25;3.47;;;3.20;;
28545;SDS011;15749;49.606;8.738;2022-07-30T02:30:17;3.40;;;3.10;;
28545;SDS011;15749;49.606;8.738;2022-07-30T02:33:08;2.87;;;2.67;;
28545;SDS011;15749;49.606;8.738;2022-07-30T02:35:59;3.60;;;3.30;;
28545;SDS011;15749;49.606;8.738;2022-07-30T02:38:55;3.50;;;3.20;;
28545;SDS011;15749;49.606;8.738;2022-07-30T02:41:44;3.60;;;3.07;;
28545;SDS011;15749;49.606;8.738;2022-07-30T02:44:34;4.10;;;3.47;;
28545;SDS011;15749;49.606;8.738;2022-07-30T02:47:25;3.30;;;3.10;;
28545;SDS011;15749;49.606;8.738;2022-07-30T02:50:23;3.70;;;3.40;;
28545;SDS011;15749;49.606;8.738;2022-07-30T02:53:13;3.50;;;3.20;;
28545;SDS011;15749;49.606;8.738;2022-07-30T02:56:03;3.60;;;3.30;;
28545;SDS011;15749;49.606;8.738;2022-07-30T02:58:53;4.00;;;3.60;;
28545;SDS011;15749;49.606;8.738;2022-07-30T03:01:43;3.80;;;3.50;;
28545;SDS011;15749;49.606;8.738;2022-07-30T03:04:33;5.37;;;4.70;;
28545;SDS011;15749;49.606;8.738;2022-07-30T03:07:23;5.17;;;4.30;;
28545;SDS011;15749;49.606;8.738;2022-07-30T03:10:15;4.77;;;4.37;;
28545;SDS011;15749;49.606;8.738;2022-07-30T03:13:04;3.87;;;3.57;;
28545;SDS011;15749;49.606;8.738;2022-07-30T03:15:53;3.97;;;3.67;;
28545;SDS011;15749;49.606;8.738;2022-07-30T03:18:45;3.87;;;3.57;;
28545;SDS011;15749;49.606;8.738;2022-07-30T03:21:34;3.20;;;3.00;;
28545;SDS011;15749;49.606;8.738;2022-07-30T03:24:23;3.90;;;3.60;;
28545;SDS011;15749;49.606;8.738;2022-07-30T03:27:15;3.70;;;3.40;;
28545;SDS011;15749;49.606;8.738;2022-07-30T03:30:04;3.30;;;3.00;;
28545;SDS011;15749;49.606;8.738;2022-07-30T03:32:54;2.70;;;2.50;;
28545;SDS011;15749;49.606;8.738;2022-07-30T03:35:43;5.07;;;3.27;;
28545;SDS011;15749;49.606;8.738;2022-07-30T03:38:32;3.50;;;3.30;;
28545;SDS011;15749;49.606;8.738;2022-07-30T03:41:22;4.07;;;3.70;;
28545;SDS011;15749;49.606;8.738;2022-07-30T03:44:13;4.13;;;3.30;;
28545;SDS011;15749;49.606;8.738;2022-07-30T03:47:03;4.00;;;3.70;;
28545;SDS011;15749;49.606;8.738;2022-07-30T03:49:59;3.13;;;2.83;;
28545;SDS011;15749;49.606;8.738;2022-07-30T03:52:50;3.60;;;3.17;;
28545;SDS011;15749;49.606;8.738;2022-07-30T03:55:38;3.47;;;3.17;;
28545;SDS011;15749;49.606;8.738;2022-07-30T03:58:52;3.33;;;3.00;;
28545;SDS011;15749;49.606;8.738;2022-07-30T04:01:43;3.00;;;2.67;;
28545;SDS011;15749;49.606;8.738;2022-07-30T04:04:50;3.00;;;2.80;;
28545;SDS011;15749;49.606;8.738;2022-07-30T04:07:38;3.77;;;3.47;;
28545;SDS011;15749;49.606;8.738;2022-07-30T04:10:31;4.07;;;3.77;;
28545;SDS011;15749;49.606;8.738;2022-07-30T04:13:51;3.97;;;3.67;;
28545;SDS011;15749;49.606;8.738;2022-07-30T04:16:48;3.43;;;3.20;;
28545;SDS011;15749;49.606;8.738;2022-07-30T04:19:45;3.47;;;3.23;;
28545;SDS011;15749;49.606;8.738;2022-07-30T04:22:38;3.37;;;3.17;;
28545;SDS011;15749;49.606;8.738;2022-07-30T04:25:27;3.30;;;3.00;;
28545;SDS011;15749;49.606;8.738;2022-07-30T04:28:16;2.93;;;2.73;;
28545;SDS011;15749;49.606;8.738;2022-07-30T04:31:06;3.00;;;2.80;;
28545;SDS011;15749;49.606;8.738;2022-07-30T04:33:55;2.73;;;2.53;;
28545;SDS011;15749;49.606;8.738;2022-07-30T04:36:55;3.27;;;3.00;;
28545;SDS011;15749;49.606;8.738;2022-07-30T04:39:46;3.33;;;3.03;;
28545;SDS011;15749;49.606;8.738;2022-07-30T04:42:36;3.10;;;2.90;;
28545;SDS011;15749;49.606;8.738;2022-07-30T04:45:28;3.50;;;3.20;;
28545;SDS011;15749;49.606;8.738;2022-07-30T04:48:18;3.33;;;3.13;;
28545;SDS011;15749;49.606;8.738;2022-07-30T04:51:34;3.60;;;3.13;;
28545;SDS011;15749;49.606;8.738;2022-07-30T04:57:42;4.10;;;3.70;;
28545;SDS011;15749;49.606;8.738;2022-07-30T05:00:32;4.20;;;3.90;;
28545;SDS011;15749;49.606;8.738;2022-07-30T05:03:29;4.17;;;3.87;;
28545;SDS011;15749;49.606;8.738;2022-07-30T05:06:20;3.77;;;3.47;;
28545;SDS011;15749;49.606;8.738;2022-07-30T05:09:11;3.90;;;3.60;;
28545;SDS011;15749;49.606;8.738;2022-07-30T05:12:02;4.70;;;4.30;;
28545;SDS011;15749;49.606;8.738;2022-07-30T05:14:50;3.80;;;3.50;;
28545;SDS011;15749;49.606;8.738;2022-07-30T05:17:39;3.50;;;3.20;;
28545;SDS011;15749;49.606;8.738;2022-07-30T05:20:31;2.73;;;2.53;;
28545;SDS011;15749;49.606;8.738;2022-07-30T05:23:29;3.40;;;3.20;;
28545;SDS011;15749;49.606;8.738;2022-07-30T05:26:26;3.90;;;3.60;;
28545;SDS011;15749;49.606;8.738;2022-07-30T05:29:16;3.80;;;3.50;;
28545;SDS011;15749;49.606;8.738;2022-07-30T05:32:09;4.20;;;3.90;;
28545;SDS011;15749;49.606;8.738;2022-07-30T05:34:58;3.93;;;3.00;;
28545;SDS011;15749;49.606;8.738;2022-07-30T05:37:46;4.13;;;3.83;;
28545;SDS011;15749;49.606;8.738;2022-07-30T05:40:35;3.83;;;3.53;;
28545;SDS011;15749;49.606;8.738;2022-07-30T05:43:44;3.00;;;2.80;;
28545;SDS011;15749;49.606;8.738;2022-07-30T05:46:41;3.70;;;3.40;;
28545;SDS011;15749;49.606;8.738;2022-07-30T05:49:29;4.43;;;4.10;;
28545;SDS011;15749;49.606;8.738;2022-07-30T05:52:24;4.83;;;4.43;;
28545;SDS011;15749;49.606;8.738;2022-07-30T05:55:24;5.23;;;3.77;;
28545;SDS011;15749;49.606;8.738;2022-07-30T05:58:25;5.30;;;4.90;;
28545;SDS011;15749;49.606;8.738;2022-07-30T06:01:16;6.10;;;5.10;;
28545;SDS011;15749;49.606;8.738;2022-07-30T06:04:05;4.30;;;4.00;;
28545;SDS011;15749;49.606;8.738;2022-07-30T06:07:03;4.10;;;3.80;;
28545;SDS011;15749;49.606;8.738;2022-07-30T06:09:51;4.27;;;3.97;;
28545;SDS011;15749;49.606;8.738;2022-07-30T06:12:39;5.47;;;5.07;;
28545;SDS011;15749;49.606;8.738;2022-07-30T06:15:28;4.07;;;3.77;;
28545;SDS011;15749;49.606;8.738;2022-07-30T06:18:18;3.80;;;3.50;;
28545;SDS011;15749;49.606;8.738;2022-07-30T06:21:10;5.00;;;4.50;;
28545;SDS011;15749;49.606;8.738;2022-07-30T06:24:17;5.00;;;4.60;;
28545;SDS011;15749;49.606;8.738;2022-07-30T06:27:18;5.73;;;5.13;;
28545;SDS011;15749;49.606;8.738;2022-07-30T06:30:07;5.57;;;4.67;;
28545;SDS011;15749;49.606;8.738;2022-07-30T06:32:58;5.37;;;4.87;;
28545;SDS011;15749;49.606;8.738;2022-07-30T06:35:48;4.20;;;3.90;;
28545;SDS011;15749;49.606;8.738;2022-07-30T06:38:41;3.80;;;3.50;;
28545;SDS011;15749;49.606;8.738;2022-07-30T06:41:32;5.80;;;4.97;;
28545;SDS011;15749;49.606;8.738;2022-07-30T06:44:21;6.77;;;4.10;;
28545;SDS011;15749;49.606;8.738;2022-07-30T06:47:30;4.27;;;3.87;;
28545;SDS011;15749;49.606;8.738;2022-07-30T06:50:20;6.07;;;5.27;;
28545;SDS011;15749;49.606;8.738;2022-07-30T06:53:10;4.67;;;4.33;;
28545;SDS011;15749;49.606;8.738;2022-07-30T06:56:17;5.47;;;4.13;;
28545;SDS011;15749;49.606;8.738;2022-07-30T06:59:11;4.20;;;3.80;;
28545;SDS011;15749;49.606;8.738;2022-07-30T07:02:38;4.80;;;4.30;;
28545;SDS011;15749;49.606;8.738;2022-07-30T07:05:30;4.20;;;3.80;;
28545;SDS011;15749;49.606;8.738;2022-07-30T07:08:20;4.13;;;3.80;;
28545;SDS011;15749;49.606;8.738;2022-07-30T07:11:12;3.93;;;3.53;;
28545;SDS011;15749;49.606;8.738;2022-07-30T07:14:04;3.57;;;3.27;;
28545;SDS011;15749;49.606;8.738;2022-07-30T07:16:53;4.83;;;4.00;;
28545;SDS011;15749;49.606;8.738;2022-07-30T07:20:01;4.07;;;3.33;;
28545;SDS011;15749;49.606;8.738;2022-07-30T07:22:59;3.73;;;3.00;;
28545;SDS011;15749;49.606;8.738;2022-07-30T07:25:57;3.93;;;3.53;;
28545;SDS011;15749;49.606;8.738;2022-07-30T07:28:47;4.70;;;4.20;;
28545;SDS011;15749;49.606;8.738;2022-07-30T07:31:36;3.70;;;3.33;;
28545;SDS011;15749;49.606;8.738;2022-07-30T07:34:45;3.80;;;3.50;;
28545;SDS011;15749;49.606;8.738;2022-07-30T07:37:33;5.03;;;3.60;;
28545;SDS011;15749;49.606;8.738;2022-07-30T07:40:23;4.63;;;3.93;;
28545;SDS011;15749;49.606;8.738;2022-07-30T07:43:15;5.17;;;4.10;;
28545;SDS011;15749;49.606;8.738;2022-07-30T07:46:04;3.97;;;3.50;;
28545;SDS011;15749;49.606;8.738;2022-07-30T07:48:54;3.50;;;3.20;;
28545;SDS011;15749;49.606;8.738;2022-07-30T07:51:51;4.85;;;3.58;;
28545;SDS011;15749;49.606;8.738;2022-07-30T07:54:40;4.40;;;3.22;;
28545;SDS011;15749;49.606;8.738;2022-07-30T07:57:29;4.40;;;3.13;;
28545;SDS011;15749;49.606;8.738;2022-07-30T08:00:19;4.30;;;3.17;;
28545;SDS011;15749;49.606;8.738;2022-07-30T08:03:09;3.80;;;3.13;;
28545;SDS011;15749;49.606;8.738;2022-07-30T08:05:59;3.53;;;2.95;;
28545;SDS011;15749;49.606;8.738;2022-07-30T08:09:25;5.32;;;3.65;;
28545;SDS011;15749;49.606;8.738;2022-07-30T08:13:02;3.85;;;3.10;;
28545;SDS011;15749;49.606;8.738;2022-07-30T08:16:14;7.45;;;3.55;;
28545;SDS011;15749;49.606;8.738;2022-07-30T08:19:26;3.40;;;3.10;;
28545;SDS011;15749;49.606;8.738;2022-07-30T08:22:35;4.40;;;3.72;;
28545;SDS011;15749;49.606;8.738;2022-07-30T08:25:24;3.38;;;3.08;;
28545;SDS011;15749;49.606;8.738;2022-07-30T08:28:14;4.22;;;3.78;;
28545;SDS011;15749;49.606;8.738;2022-07-30T08:31:23;6.10;;;4.20;;
28545;SDS011;15749;49.606;8.738;2022-07-30T08:34:11;6.90;;;5.00;;
28545;SDS011;15749;49.606;8.738;2022-07-30T08:37:01;5.82;;;4.30;;
28545;SDS011;15749;49.606;8.738;2022-07-30T08:39:49;4.30;;;3.88;;
28545;SDS011;15749;49.606;8.738;2022-07-30T08:42:37;7.28;;;5.00;;
28545;SDS011;15749;49.606;8.738;2022-07-30T08:45:26;6.05;;;4.45;;
28545;SDS011;15749;49.606;8.738;2022-07-30T08:48:40;10.13;;;5.30;;
28545;SDS011;15749;49.606;8.738;2022-07-30T08:51:31;4.53;;;3.92;;
28545;SDS011;15749;49.606;8.738;2022-07-30T08:54:37;6.15;;;4.68;;
28545;SDS011;15749;49.606;8.738;2022-07-30T08:57:27;4.53;;;3.67;;
28545;SDS011;15749;49.606;8.738;2022-07-30T09:00:16;6.45;;;4.22;;
28545;SDS011;15749;49.606;8.738;2022-07-30T09:03:07;4.95;;;4.05;;
28545;SDS011;15749;49.606;8.738;2022-07-30T09:05:56;4.68;;;3.90;;
28545;SDS011;15749;49.606;8.738;2022-07-30T09:08:45;5.72;;;3.92;;
28545;SDS011;15749;49.606;8.738;2022-07-30T09:11:34;6.07;;;3.90;;
28545;SDS011;15749;49.606;8.738;2022-07-30T09:14:22;3.47;;;3.15;;
28545;SDS011;15749;49.606;8.738;2022-07-30T09:17:16;3.63;;;3.28;;
28545;SDS011;15749;49.606;8.738;2022-07-30T09:20:05;4.30;;;3.88;;
28545;SDS011;15749;49.606;8.738;2022-07-30T09:22:57;4.15;;;3.30;;
28545;SDS011;15749;49.606;8.738;2022-07-30T09:26:26;3.95;;;2.97;;
28545;SDS011;15749;49.606;8.738;2022-07-30T09:29:18;3.70;;;2.70;;
28545;SDS011;15749;49.606;8.738;2022-07-30T09:32:29;5.10;;;3.20;;
28545;SDS011;15749;49.606;8.738;2022-07-30T09:36:00;3.45;;;3.15;;
28545;SDS011;15749;49.606;8.738;2022-07-30T09:39:12;3.95;;;2.33;;
28545;SDS011;15749;49.606;8.738;2022-07-30T09:42:19;3.10;;;2.80;;
28545;SDS011;15749;49.606;8.738;2022-07-30T09:45:13;3.15;;;2.75;;
28545;SDS011;15749;49.606;8.738;2022-07-30T09:48:04;6.03;;;3.05;;
28545;SDS011;15749;49.606;8.738;2022-07-30T09:51:07;3.50;;;2.83;;
28545;SDS011;15749;49.606;8.738;2022-07-30T09:54:00;3.85;;;2.58;;
28545;SDS011;15749;49.606;8.738;2022-07-30T09:57:03;3.75;;;2.60;;
28545;SDS011;15749;49.606;8.738;2022-07-30T10:00:17;4.32;;;2.33;;
28545;SDS011;15749;49.606;8.738;2022-07-30T10:03:30;2.45;;;2.10;;
28545;SDS011;15749;49.606;8.738;2022-07-30T10:06:45;2.90;;;2.40;;
28545;SDS011;15749;49.606;8.738;2022-07-30T10:09:44;3.30;;;3.00;;
28545;SDS011;15749;49.606;8.738;2022-07-30T10:12:36;5.07;;;3.80;;
28545;SDS011;15749;49.606;8.738;2022-07-30T10:15:27;3.50;;;2.90;;
28545;SDS011;15749;49.606;8.738;2022-07-30T10:18:19;4.30;;;2.97;;
28545;SDS011;15749;49.606;8.738;2022-07-30T10:21:27;3.22;;;2.25;;
28545;SDS011;15749;49.606;8.738;2022-07-30T10:24:39;4.65;;;2.53;;
28545;SDS011;15749;49.606;8.738;2022-07-30T10:27:48;2.10;;;2.00;;
28545;SDS011;15749;49.606;8.738;2022-07-30T10:30:47;1.70;;;1.60;;
28545;SDS011;15749;49.606;8.738;2022-07-30T10:33:35;1.73;;;1.63;;
28545;SDS011;15749;49.606;8.738;2022-07-30T10:36:24;2.42;;;2.05;;
28545;SDS011;15749;49.606;8.738;2022-07-30T10:39:15;3.72;;;2.00;;
28545;SDS011;15749;49.606;8.738;2022-07-30T10:42:14;3.78;;;2.63;;
28545;SDS011;15749;49.606;8.738;2022-07-30T10:45:19;2.63;;;1.70;;
28545;SDS011;15749;49.606;8.738;2022-07-30T10:48:16;3.22;;;1.90;;
28545;SDS011;15749;49.606;8.738;2022-07-30T10:51:05;2.30;;;1.40;;
28545;SDS011;15749;49.606;8.738;2022-07-30T10:53:52;2.00;;;1.48;;
28545;SDS011;15749;49.606;8.738;2022-07-30T10:56:40;3.05;;;1.75;;
28545;SDS011;15749;49.606;8.738;2022-07-30T10:59:29;3.00;;;1.90;;
28545;SDS011;15749;49.606;8.738;2022-07-30T11:03:12;3.35;;;2.08;;
28545;SDS011;15749;49.606;8.738;2022-07-30T11:15:51;1.10;;;1.00;;
28545;SDS011;15749;49.606;8.738;2022-07-30T11:22:25;1.17;;;1.08;;
28545;SDS011;15749;49.606;8.738;2022-07-30T11:28:40;1.73;;;1.25;;
28545;SDS011;15749;49.606;8.738;2022-07-30T11:31:34;0.90;;;0.80;;
28545;SDS011;15749;49.606;8.738;2022-07-30T11:34:45;1.35;;;0.82;;
28545;SDS011;15749;49.606;8.738;2022-07-30T11:37:45;3.42;;;1.30;;
28545;SDS011;15749;49.606;8.738;2022-07-30T11:41:08;2.10;;;0.88;;
28545;SDS011;15749;49.606;8.738;2022-07-30T11:47:15;1.40;;;1.30;;
28545;SDS011;15749;49.606;8.738;2022-07-30T11:50:06;1.30;;;1.13;;
28545;SDS011;15749;49.606;8.738;2022-07-30T11:52:54;1.30;;;1.08;;
28545;SDS011;15749;49.606;8.738;2022-07-30T11:55:45;1.48;;;1.13;;
28545;SDS011;15749;49.606;8.738;2022-07-30T11:58:37;3.78;;;1.38;;
28545;SDS011;15749;49.606;8.738;2022-07-30T12:01:25;1.88;;;1.10;;
28545;SDS011;15749;49.606;8.738;2022-07-30T12:04:15;1.85;;;1.30;;
28545;SDS011;15749;49.606;8.738;2022-07-30T12:07:04;1.73;;;1.20;;
28545;SDS011;15749;49.606;8.738;2022-07-30T12:09:52;2.38;;;1.38;;
28545;SDS011;15749;49.606;8.738;2022-07-30T12:12:40;1.73;;;0.95;;
28545;SDS011;15749;49.606;8.738;2022-07-30T12:15:29;2.17;;;1.13;;
28545;SDS011;15749;49.606;8.738;2022-07-30T12:18:22;1.45;;;1.00;;
28545;SDS011;15749;49.606;8.738;2022-07-30T12:21:12;1.77;;;1.30;;
28545;SDS011;15749;49.606;8.738;2022-07-30T12:24:13;1.30;;;1.20;;
28545;SDS011;15749;49.606;8.738;2022-07-30T12:27:02;2.03;;;1.40;;
28545;SDS011;15749;49.606;8.738;2022-07-30T12:29:51;3.90;;;1.05;;
28545;SDS011;15749;49.606;8.738;2022-07-30T12:32:39;2.17;;;1.35;;
28545;SDS011;15749;49.606;8.738;2022-07-30T12:35:40;2.17;;;1.15;;
28545;SDS011;15749;49.606;8.738;2022-07-30T12:38:41;1.30;;;1.15;;
28545;SDS011;15749;49.606;8.738;2022-07-30T12:41:41;2.22;;;1.17;;
28545;SDS011;15749;49.606;8.738;2022-07-30T12:44:34;1.77;;;1.00;;
28545;SDS011;15749;49.606;8.738;2022-07-30T12:47:26;2.45;;;1.23;;
28545;SDS011;15749;49.606;8.738;2022-07-30T12:50:15;1.75;;;1.27;;
28545;SDS011;15749;49.606;8.738;2022-07-30T12:53:04;1.67;;;1.27;;
28545;SDS011;15749;49.606;8.738;2022-07-30T12:55:52;1.40;;;1.23;;
28545;SDS011;15749;49.606;8.738;2022-07-30T12:58:41;3.47;;;1.02;;
28545;SDS011;15749;49.606;8.738;2022-07-30T13:01:39;1.75;;;1.20;;
28545;SDS011;15749;49.606;8.738;2022-07-30T13:04:28;1.63;;;0.95;;
28545;SDS011;15749;49.606;8.738;2022-07-30T13:07:19;1.05;;;0.93;;
28545;SDS011;15749;49.606;8.738;2022-07-30T13:10:13;1.50;;;1.05;;
28545;SDS011;15749;49.606;8.738;2022-07-30T13:13:03;1.77;;;1.10;;
28545;SDS011;15749;49.606;8.738;2022-07-30T13:15:59;1.00;;;0.85;;
28545;SDS011;15749;49.606;8.738;2022-07-30T13:18:48;1.08;;;0.90;;
28545;SDS011;15749;49.606;8.738;2022-07-30T13:21:36;2.42;;;1.33;;
28545;SDS011;15749;49.606;8.738;2022-07-30T13:24:33;0.90;;;0.80;;
28545;SDS011;15749;49.606;8.738;2022-07-30T13:27:23;2.75;;;0.90;;
28545;SDS011;15749;49.606;8.738;2022-07-30T13:30:12;0.70;;;0.70;;
28545;SDS011;15749;49.606;8.738;2022-07-30T13:33:01;2.15;;;1.00;;
28545;SDS011;15749;49.606;8.738;2022-07-30T13:35:50;1.33;;;1.00;;
28545;SDS011;15749;49.606;8.738;2022-07-30T13:38:38;2.00;;;0.93;;
28545;SDS011;15749;49.606;8.738;2022-07-30T13:41:26;2.13;;;0.85;;
28545;SDS011;15749;49.606;8.738;2022-07-30T13:44:14;0.60;;;0.60;;
28545;SDS011;15749;49.606;8.738;2022-07-30T13:47:02;2.53;;;0.93;;
28545;SDS011;15749;49.606;8.738;2022-07-30T13:49:54;0.80;;;0.70;;
28545;SDS011;15749;49.606;8.738;2022-07-30T13:52:42;0.75;;;0.75;;
28545;SDS011;15749;49.606;8.738;2022-07-30T13:55:30;1.73;;;0.70;;
28545;SDS011;15749;49.606;8.738;2022-07-30T13:58:18;1.00;;;0.80;;
28545;SDS011;15749;49.606;8.738;2022-07-30T14:01:06;1.52;;;0.85;;
28545;SDS011;15749;49.606;8.738;2022-07-30T14:04:01;0.70;;;0.60;;
28545;SDS011;15749;49.606;8.738;2022-07-30T14:06:52;0.82;;;0.57;;
28545;SDS011;15749;49.606;8.738;2022-07-30T14:09:40;2.25;;;0.88;;
28545;SDS011;15749;49.606;8.738;2022-07-30T14:12:32;0.95;;;0.88;;
28545;SDS011;15749;49.606;8.738;2022-07-30T14:15:23;1.17;;;0.70;;
28545;SDS011;15749;49.606;8.738;2022-07-30T14:18:15;0.80;;;0.70;;
28545;SDS011;15749;49.606;8.738;2022-07-30T14:21:03;1.42;;;0.93;;
28545;SDS011;15749;49.606;8.738;2022-07-30T14:23:52;0.60;;;0.60;;
28545;SDS011;15749;49.606;8.738;2022-07-30T14:26:40;2.33;;;0.70;;
28545;SDS011;15749;49.606;8.738;2022-07-30T14:29:29;1.70;;;0.80;;
28545;SDS011;15749;49.606;8.738;2022-07-30T14:32:17;2.75;;;0.80;;
28545;SDS011;15749;49.606;8.738;2022-07-30T14:35:08;1.63;;;0.70;;
28545;SDS011;15749;49.606;8.738;2022-07-30T14:37:56;0.65;;;0.60;;
28545;SDS011;15749;49.606;8.738;2022-07-30T14:40:46;1.20;;;0.60;;
28545;SDS011;15749;49.606;8.738;2022-07-30T14:43:34;1.27;;;0.65;;
28545;SDS011;15749;49.606;8.738;2022-07-30T14:46:21;1.10;;;0.63;;
28545;SDS011;15749;49.606;8.738;2022-07-30T14:49:10;1.35;;;0.70;;
28545;SDS011;15749;49.606;8.738;2022-07-30T14:52:00;1.10;;;0.70;;
28545;SDS011;15749;49.606;8.738;2022-07-30T14:54:48;1.00;;;0.80;;
28545;SDS011;15749;49.606;8.738;2022-07-30T14:57:37;1.30;;;0.70;;
28545;SDS011;15749;49.606;8.738;2022-07-30T15:00:25;0.80;;;0.68;;
28545;SDS011;15749;49.606;8.738;2022-07-30T15:03:32;2.05;;;0.77;;
28545;SDS011;15749;49.606;8.738;2022-07-30T15:06:21;0.80;;;0.70;;
28545;SDS011;15749;49.606;8.738;2022-07-30T15:09:09;1.00;;;0.80;;
28545;SDS011;15749;49.606;8.738;2022-07-30T15:11:57;0.50;;;0.50;;
28545;SDS011;15749;49.606;8.738;2022-07-30T15:15:07;2.35;;;0.80;;
28545;SDS011;15749;49.606;8.738;2022-07-30T15:17:56;1.13;;;0.68;;
28545;SDS011;15749;49.606;8.738;2022-07-30T15:20:44;1.40;;;0.90;;
28545;SDS011;15749;49.606;8.738;2022-07-30T15:23:32;1.20;;;0.80;;
28545;SDS011;15749;49.606;8.738;2022-07-30T15:26:20;0.75;;;0.57;;
28545;SDS011;15749;49.606;8.738;2022-07-30T15:29:08;0.98;;;0.65;;
28545;SDS011;15749;49.606;8.738;2022-07-30T15:31:59;0.63;;;0.60;;
28545;SDS011;15749;49.606;8.738;2022-07-30T15:34:47;1.00;;;0.77;;
28545;SDS011;15749;49.606;8.738;2022-07-30T15:37:36;1.08;;;0.98;;
28545;SDS011;15749;49.606;8.738;2022-07-30T15:40:24;0.73;;;0.70;;
28545;SDS011;15749;49.606;8.738;2022-07-30T15:43:12;1.60;;;0.90;;
28545;SDS011;15749;49.606;8.738;2022-07-30T15:46:03;1.20;;;0.70;;
28545;SDS011;15749;49.606;8.738;2022-07-30T15:48:53;0.80;;;0.80;;
28545;SDS011;15749;49.606;8.738;2022-07-30T15:51:41;1.00;;;0.90;;
28545;SDS011;15749;49.606;8.738;2022-07-30T15:54:33;3.00;;;0.90;;
28545;SDS011;15749;49.606;8.738;2022-07-30T15:57:21;1.77;;;1.00;;
28545;SDS011;15749;49.606;8.738;2022-07-30T16:00:09;3.67;;;1.10;;
28545;SDS011;15749;49.606;8.738;2022-07-30T16:02:59;3.53;;;0.90;;
28545;SDS011;15749;49.606;8.738;2022-07-30T16:05:53;1.70;;;1.00;;
28545;SDS011;15749;49.606;8.738;2022-07-30T16:08:41;1.13;;;0.80;;
28545;SDS011;15749;49.606;8.738;2022-07-30T16:11:36;0.93;;;0.77;;
28545;SDS011;15749;49.606;8.738;2022-07-30T16:14:26;1.45;;;0.75;;
28545;SDS011;15749;49.606;8.738;2022-07-30T16:17:14;0.75;;;0.70;;
28545;SDS011;15749;49.606;8.738;2022-07-30T16:20:02;1.23;;;0.90;;
28545;SDS011;15749;49.606;8.738;2022-07-30T16:22:53;0.70;;;0.70;;
28545;SDS011;15749;49.606;8.738;2022-07-30T16:25:41;1.45;;;0.90;;
28545;SDS011;15749;49.606;8.738;2022-07-30T16:28:29;0.70;;;0.68;;
28545;SDS011;15749;49.606;8.738;2022-07-30T16:31:17;0.73;;;0.73;;
28545;SDS011;15749;49.606;8.738;2022-07-30T16:34:04;0.85;;;0.80;;
28545;SDS011;15749;49.606;8.738;2022-07-30T16:36:53;1.90;;;0.75;;
28545;SDS011;15749;49.606;8.738;2022-07-30T16:39:42;1.73;;;0.90;;
28545;SDS011;15749;49.606;8.738;2022-07-30T16:42:30;1.55;;;1.00;;
28545;SDS011;15749;49.606;8.738;2022-07-30T16:45:18;1.23;;;0.82;;
28545;SDS011;15749;49.606;8.738;2022-07-30T16:48:06;1.40;;;0.80;;
28545;SDS011;15749;49.606;8.738;2022-07-30T16:50:55;1.10;;;0.80;;
28545;SDS011;15749;49.606;8.738;2022-07-30T16:53:43;1.23;;;0.70;;
28545;SDS011;15749;49.606;8.738;2022-07-30T16:56:34;0.73;;;0.68;;
28545;SDS011;15749;49.606;8.738;2022-07-30T16:59:22;1.42;;;0.65;;
28545;SDS011;15749;49.606;8.738;2022-07-30T17:02:10;0.98;;;0.70;;
28545;SDS011;15749;49.606;8.738;2022-07-30T17:04:58;0.50;;;0.50;;
28545;SDS011;15749;49.606;8.738;2022-07-30T17:07:46;4.68;;;0.77;;
28545;SDS011;15749;49.606;8.738;2022-07-30T17:10:34;1.50;;;0.80;;
28545;SDS011;15749;49.606;8.738;2022-07-30T17:13:26;1.17;;;0.80;;
28545;SDS011;15749;49.606;8.738;2022-07-30T17:16:15;1.08;;;0.85;;
28545;SDS011;15749;49.606;8.738;2022-07-30T17:19:05;0.85;;;0.80;;
28545;SDS011;15749;49.606;8.738;2022-07-30T17:21:54;1.17;;;0.65;;
28545;SDS011;15749;49.606;8.738;2022-07-30T17:24:42;0.60;;;0.60;;
28545;SDS011;15749;49.606;8.738;2022-07-30T17:27:30;1.23;;;0.88;;
28545;SDS011;15749;49.606;8.738;2022-07-30T17:30:19;3.15;;;0.90;;
28545;SDS011;15749;49.606;8.738;2022-07-30T17:33:08;1.40;;;0.85;;
28545;SDS011;15749;49.606;8.738;2022-07-30T17:35:56;1.13;;;0.80;;
28545;SDS011;15749;49.606;8.738;2022-07-30T17:38:44;1.08;;;0.80;;
28545;SDS011;15749;49.606;8.738;2022-07-30T17:41:32;1.13;;;0.90;;
28545;SDS011;15749;49.606;8.738;2022-07-30T17:44:40;1.05;;;0.60;;
28545;SDS011;15749;49.606;8.738;2022-07-30T17:47:30;1.05;;;0.68;;